leanin.org alexa rank chart, leanin.org alexa rank daily changes

leanin.org alexa rank chart, leanin.org alexa rank daily changes

leanin.org
Actual rank:
880 562

RANK HISTORY

Date Rank Diff
2018/06/25 880 562 +652 143
2018/06/24 228 419 -9 893
2018/06/23 238 312 +31 724
2018/06/22 206 588 +47 465
2018/06/21 159 123 -161 495
2018/06/20 320 618 -227 436
2018/06/19 548 054 -61 250
2018/06/18 609 304 +205 191
2018/06/17 404 113 +233 456
2018/06/16 170 657 -66 966
2018/06/14 237 623 +50 426
2018/06/13 187 197 -172 628
2018/06/12 359 825 -639 307
2018/06/11 999 132 +147 703
2018/06/10 851 429 +567 806
2018/06/09 283 623 +90 504
2018/06/08 193 119 -18 475
2018/06/07 211 594 +41 685
2018/06/06 169 909 +71 282
2018/06/05 98 627 -578 066
2018/06/04 676 693 +337 839
2018/06/03 338 854 +106 464
2018/06/02 232 390 -391 451
2018/06/01 623 841 +268 085
2018/05/31 355 756 +91 727
2018/05/29 264 029 -205 671
2018/05/28 469 700 -267 598
2018/05/27 737 298 +221 872
2018/05/26 515 426 +250 019
2018/05/25 265 407 +3 718
2018/05/24 261 689 -284 610
2018/05/23 546 299 +252 948
2018/05/22 293 351 +51 156
2018/05/20 242 195 -151 475
2018/05/19 393 670 +1 731
2018/05/18 391 939 +184 979
2018/05/17 206 960 -149 232
2018/05/16 356 192 -131 925
2018/05/15 488 117 +198 535
2018/05/14 289 582 -559 756
2018/05/13 849 338 +659 563
2018/05/12 189 775 -27 090
2018/05/11 216 865 -871
2018/05/10 217 736 -9 041
2018/05/09 226 777 -108 761
2018/05/08 335 538 -131 119
2018/05/07 466 657 +180 584
2018/05/06 286 073 -57 442
2018/05/05 343 515 -64 205
2018/05/04 407 720 +69 006
2018/05/03 338 714 -14 187
2018/05/02 352 901 +93 253
2018/05/01 259 648 -146 425
2018/04/30 406 073 +343 011
2018/04/29 63 062 -142 483
2018/04/28 205 545 -258 257
2018/04/27 463 802 -471 006
2018/04/26 934 808

WIDGET FOR YOUR SITE

DOMAINS WITH THE NEAREST RANK

Domain Rank
lead4pass.com 880 557
leadsking.online 880 558
leadzchain.net 880 559
leakedreality.com 880 560
lean-and-systemthinking.blogspot.com 880 561
leanin.org 880 562
leapica.com 880 563
learnarabic.info 880 564
learndrivesurvive.com.au 880 565
learninganddevelopment.info 880 566
learningorthopaedics.com 880 567

DOMAINS WITH THE NEAREST RANK BY TLD .org

Domain Rank
jpssm.org 880 295
jwildlifedis.org 880 327
kazamatsuri.org 880 378
khalsanews.org 880 410
kineticenergytheatre.org 880 437
leanin.org 880 562
learntherisk.org 880 569
libertarian-labyrinth.org 880 611
lifebeinit.org 880 624
lifecrew.org 880 625
ligo.org 880 644